Pagrindinis puslapis
METAR-TAF:

METAR-TAF

Oro uostai :

Kastamonu, Turkija

platuma: 41-19-01N, ilguma: 33-47-46E, Aukštis: 1073 m

Dabartinis oras

Ataskaita buvo paskelbta 16 valandos ir 47 minutes, ne 11:50 UTC
Vėjas 4 kt iš Šiaurės
Temperatūra 4°C
Drėgmė 87%
Slėgis 1014 hPa
Matomumas 10 km arba daugiau
Mažai debesys ne aukštis 3000 ft

METAR: LTAL 091150Z 01004KT 9999 FEW030 04/02 Q1014

Laikas: 07:37 (04:37 UTC)

Prognozė

Ataskaita buvo paskelbta 2 valandos ir 57 minutes, ne 01:40 UTC
Prognozė galioja nuo 10 metu 03 UTC su 10 metu 12 UTC
Vėjas 2 kt nuo kintamojo kryptimis
Matomumas: 0100 m
ne aukštis 100 ft
įšaldymas rūko
Tapsmas
nuo 10 metu 07 UTC su 10 metu 09 UTC
Matomumas: 2500 m
Su prošvaistėmis ne aukštis 500 ft
rūkana
Tapsmas
nuo 10 metu 09 UTC su 10 metu 10 UTC
Matomumas: 4000 m
Išsisklaidę debesys ne aukštis 1200 ft

TAF: LTAL 100140Z 1003/1012 VRB02KT 0100 FZFG VV001 BECMG 1007/1009 2500 BR BKN005 BECMG 1009/1010 4000 SCT012

Orai ataskaitas ir orų prognozės (METAR, TAF).

turimą stotys yra geltonos ir raudonos taškus žemėlapyje.

Perkelti pele per norėdami pamatyti stoties vardą.

Tada spustelėkite, norėdami matyti oro stebėjimo ir prognozės.

Norėdami pakeisti žemėlapį: spustelėkite ant žalios mygtukų su juodo kryžiaus žemyn,; žalią mygtuką su brūkšneliu, jei norite nutolinti; arba žalių rodyklių gretimoms žemėlapius.


METAR-TAF: